sensor_id;sensor_type;location;lat;lon;timestamp;P1;durP1;ratioP1;P2;durP2;ratioP2
789;SDS011;378;48.844;9.156;2022-11-20T00:00:39;23.55;;;12.30;;
789;SDS011;378;48.844;9.156;2022-11-20T00:03:07;29.88;;;12.45;;
789;SDS011;378;48.844;9.156;2022-11-20T00:05:34;32.17;;;14.05;;
789;SDS011;378;48.844;9.156;2022-11-20T00:08:00;69.35;;;13.25;;
789;SDS011;378;48.844;9.156;2022-11-20T00:10:27;81.22;;;14.55;;
789;SDS011;378;48.844;9.156;2022-11-20T00:12:54;78.97;;;15.95;;
789;SDS011;378;48.844;9.156;2022-11-20T00:15:21;32.65;;;12.85;;
789;SDS011;378;48.844;9.156;2022-11-20T00:17:48;53.47;;;14.45;;
789;SDS011;378;48.844;9.156;2022-11-20T00:20:16;98.68;;;13.88;;
789;SDS011;378;48.844;9.156;2022-11-20T00:22:43;72.50;;;14.57;;
789;SDS011;378;48.844;9.156;2022-11-20T00:25:10;59.58;;;13.85;;
789;SDS011;378;48.844;9.156;2022-11-20T00:27:37;26.98;;;11.77;;
789;SDS011;378;48.844;9.156;2022-11-20T00:30:05;75.13;;;12.90;;
789;SDS011;378;48.844;9.156;2022-11-20T00:32:32;29.48;;;12.38;;
789;SDS011;378;48.844;9.156;2022-11-20T00:34:59;89.95;;;14.30;;
789;SDS011;378;48.844;9.156;2022-11-20T00:37:27;63.33;;;12.40;;
789;SDS011;378;48.844;9.156;2022-11-20T00:39:54;50.03;;;11.82;;
789;SDS011;378;48.844;9.156;2022-11-20T00:42:21;28.75;;;12.00;;
789;SDS011;378;48.844;9.156;2022-11-20T00:44:48;34.78;;;13.52;;
789;SDS011;378;48.844;9.156;2022-11-20T00:47:15;37.03;;;14.65;;
789;SDS011;378;48.844;9.156;2022-11-20T00:49:41;32.20;;;12.05;;
789;SDS011;378;48.844;9.156;2022-11-20T00:52:08;30.20;;;12.18;;
789;SDS011;378;48.844;9.156;2022-11-20T00:54:36;42.97;;;13.27;;
789;SDS011;378;48.844;9.156;2022-11-20T00:57:03;29.83;;;12.50;;
789;SDS011;378;48.844;9.156;2022-11-20T00:59:30;26.48;;;12.35;;
789;SDS011;378;48.844;9.156;2022-11-20T01:01:57;33.40;;;12.23;;
789;SDS011;378;48.844;9.156;2022-11-20T01:04:24;28.08;;;12.10;;
789;SDS011;378;48.844;9.156;2022-11-20T01:06:50;28.98;;;12.57;;
789;SDS011;378;48.844;9.156;2022-11-20T01:09:17;28.88;;;12.88;;
789;SDS011;378;48.844;9.156;2022-11-20T01:11:45;30.58;;;12.43;;
789;SDS011;378;48.844;9.156;2022-11-20T01:14:13;29.92;;;12.95;;
789;SDS011;378;48.844;9.156;2022-11-20T01:16:42;28.40;;;11.77;;
789;SDS011;378;48.844;9.156;2022-11-20T01:19:11;27.92;;;11.90;;
789;SDS011;378;48.844;9.156;2022-11-20T01:21:39;30.20;;;12.00;;
789;SDS011;378;48.844;9.156;2022-11-20T01:24:08;26.80;;;11.95;;
789;SDS011;378;48.844;9.156;2022-11-20T01:26:37;30.13;;;12.85;;
789;SDS011;378;48.844;9.156;2022-11-20T01:29:08;29.95;;;12.82;;
789;SDS011;378;48.844;9.156;2022-11-20T01:31:38;27.77;;;12.85;;
789;SDS011;378;48.844;9.156;2022-11-20T01:34:06;27.65;;;12.27;;
789;SDS011;378;48.844;9.156;2022-11-20T01:36:35;22.92;;;10.88;;
789;SDS011;378;48.844;9.156;2022-11-20T01:39:03;20.20;;;10.05;;
789;SDS011;378;48.844;9.156;2022-11-20T01:41:33;21.02;;;10.00;;
789;SDS011;378;48.844;9.156;2022-11-20T01:44:20;19.80;;;9.00;;
789;SDS011;378;48.844;9.156;2022-11-20T01:46:51;20.25;;;8.65;;
789;SDS011;378;48.844;9.156;2022-11-20T01:49:24;22.33;;;9.05;;
789;SDS011;378;48.844;9.156;2022-11-20T01:51:55;23.50;;;9.43;;
789;SDS011;378;48.844;9.156;2022-11-20T01:54:27;21.40;;;10.40;;
789;SDS011;378;48.844;9.156;2022-11-20T01:56:57;20.33;;;9.77;;
789;SDS011;378;48.844;9.156;2022-11-20T01:59:27;21.80;;;10.00;;
789;SDS011;378;48.844;9.156;2022-11-20T02:01:55;22.73;;;9.95;;
789;SDS011;378;48.844;9.156;2022-11-20T02:04:22;23.20;;;10.25;;
789;SDS011;378;48.844;9.156;2022-11-20T02:06:51;20.40;;;10.13;;
789;SDS011;378;48.844;9.156;2022-11-20T02:09:23;21.20;;;10.27;;
789;SDS011;378;48.844;9.156;2022-11-20T02:11:50;21.02;;;10.25;;
789;SDS011;378;48.844;9.156;2022-11-20T02:14:17;23.10;;;10.93;;
789;SDS011;378;48.844;9.156;2022-11-20T02:16:45;19.77;;;10.20;;
789;SDS011;378;48.844;9.156;2022-11-20T02:19:16;22.42;;;10.27;;
789;SDS011;378;48.844;9.156;2022-11-20T02:21:49;23.13;;;10.15;;
789;SDS011;378;48.844;9.156;2022-11-20T02:24:23;23.67;;;9.43;;
789;SDS011;378;48.844;9.156;2022-11-20T02:26:50;20.75;;;9.20;;
789;SDS011;378;48.844;9.156;2022-11-20T02:29:22;20.42;;;9.30;;
789;SDS011;378;48.844;9.156;2022-11-20T02:31:51;18.85;;;9.63;;
789;SDS011;378;48.844;9.156;2022-11-20T02:34:19;19.80;;;9.00;;
789;SDS011;378;48.844;9.156;2022-11-20T02:36:46;23.33;;;9.93;;
789;SDS011;378;48.844;9.156;2022-11-20T02:39:15;21.88;;;10.68;;
789;SDS011;378;48.844;9.156;2022-11-20T02:41:44;24.48;;;9.63;;
789;SDS011;378;48.844;9.156;2022-11-20T02:44:10;24.48;;;10.10;;
789;SDS011;378;48.844;9.156;2022-11-20T02:46:38;21.55;;;10.15;;
789;SDS011;378;48.844;9.156;2022-11-20T02:49:05;18.92;;;9.70;;
789;SDS011;378;48.844;9.156;2022-11-20T02:51:31;19.73;;;9.20;;
789;SDS011;378;48.844;9.156;2022-11-20T02:53:58;18.55;;;8.50;;
789;SDS011;378;48.844;9.156;2022-11-20T02:56:25;17.65;;;8.77;;
789;SDS011;378;48.844;9.156;2022-11-20T02:58:54;16.63;;;7.90;;
789;SDS011;378;48.844;9.156;2022-11-20T03:01:21;16.25;;;8.57;;
789;SDS011;378;48.844;9.156;2022-11-20T03:03:48;18.67;;;7.38;;
789;SDS011;378;48.844;9.156;2022-11-20T03:06:15;10.70;;;5.95;;
789;SDS011;378;48.844;9.156;2022-11-20T03:08:42;13.10;;;5.90;;
789;SDS011;378;48.844;9.156;2022-11-20T03:11:09;11.13;;;4.97;;
789;SDS011;378;48.844;9.156;2022-11-20T03:13:36;7.88;;;4.90;;
789;SDS011;378;48.844;9.156;2022-11-20T03:16:08;8.07;;;4.40;;
789;SDS011;378;48.844;9.156;2022-11-20T03:18:36;8.45;;;3.85;;
789;SDS011;378;48.844;9.156;2022-11-20T03:21:03;6.78;;;3.75;;
789;SDS011;378;48.844;9.156;2022-11-20T03:23:31;7.00;;;3.70;;
789;SDS011;378;48.844;9.156;2022-11-20T03:26:10;5.07;;;3.25;;
789;SDS011;378;48.844;9.156;2022-11-20T03:28:38;4.55;;;2.90;;
789;SDS011;378;48.844;9.156;2022-11-20T03:31:06;7.13;;;3.22;;
789;SDS011;378;48.844;9.156;2022-11-20T03:33:36;4.78;;;3.00;;
789;SDS011;378;48.844;9.156;2022-11-20T03:36:04;6.13;;;2.85;;
789;SDS011;378;48.844;9.156;2022-11-20T03:38:33;5.03;;;3.25;;
789;SDS011;378;48.844;9.156;2022-11-20T03:41:12;6.72;;;3.58;;
789;SDS011;378;48.844;9.156;2022-11-20T03:43:46;5.38;;;3.17;;
789;SDS011;378;48.844;9.156;2022-11-20T03:46:15;6.22;;;3.45;;
789;SDS011;378;48.844;9.156;2022-11-20T03:48:42;7.07;;;3.40;;
789;SDS011;378;48.844;9.156;2022-11-20T03:51:10;5.72;;;3.55;;
789;SDS011;378;48.844;9.156;2022-11-20T03:53:38;6.00;;;3.38;;
789;SDS011;378;48.844;9.156;2022-11-20T03:56:06;8.52;;;3.25;;
789;SDS011;378;48.844;9.156;2022-11-20T03:58:33;4.78;;;3.20;;
789;SDS011;378;48.844;9.156;2022-11-20T04:01:05;4.78;;;3.05;;
789;SDS011;378;48.844;9.156;2022-11-20T04:03:34;7.15;;;3.40;;
789;SDS011;378;48.844;9.156;2022-11-20T04:06:03;7.15;;;3.70;;
789;SDS011;378;48.844;9.156;2022-11-20T04:08:31;10.27;;;3.53;;
789;SDS011;378;48.844;9.156;2022-11-20T04:11:07;10.73;;;3.97;;
789;SDS011;378;48.844;9.156;2022-11-20T04:13:39;7.95;;;4.00;;
789;SDS011;378;48.844;9.156;2022-11-20T04:16:06;11.27;;;4.10;;
789;SDS011;378;48.844;9.156;2022-11-20T04:18:35;6.88;;;3.42;;
789;SDS011;378;48.844;9.156;2022-11-20T04:21:02;10.65;;;4.00;;
789;SDS011;378;48.844;9.156;2022-11-20T04:23:31;6.95;;;3.50;;
789;SDS011;378;48.844;9.156;2022-11-20T04:26:00;8.02;;;4.10;;
789;SDS011;378;48.844;9.156;2022-11-20T04:28:28;7.50;;;3.65;;
789;SDS011;378;48.844;9.156;2022-11-20T04:31:01;7.95;;;4.38;;
789;SDS011;378;48.844;9.156;2022-11-20T04:33:28;6.13;;;3.65;;
789;SDS011;378;48.844;9.156;2022-11-20T04:35:59;6.13;;;4.15;;
789;SDS011;378;48.844;9.156;2022-11-20T04:38:26;6.65;;;3.60;;
789;SDS011;378;48.844;9.156;2022-11-20T04:40:56;7.45;;;3.60;;
789;SDS011;378;48.844;9.156;2022-11-20T04:43:24;6.90;;;3.65;;
789;SDS011;378;48.844;9.156;2022-11-20T04:45:51;6.55;;;3.63;;
789;SDS011;378;48.844;9.156;2022-11-20T04:48:18;4.40;;;3.17;;
789;SDS011;378;48.844;9.156;2022-11-20T04:50:44;6.00;;;3.70;;
789;SDS011;378;48.844;9.156;2022-11-20T04:53:13;5.40;;;3.60;;
789;SDS011;378;48.844;9.156;2022-11-20T04:55:40;8.85;;;4.10;;
789;SDS011;378;48.844;9.156;2022-11-20T04:58:06;6.45;;;3.50;;
789;SDS011;378;48.844;9.156;2022-11-20T05:00:33;6.32;;;3.60;;
789;SDS011;378;48.844;9.156;2022-11-20T05:03:00;6.32;;;3.72;;
789;SDS011;378;48.844;9.156;2022-11-20T05:05:27;6.38;;;3.60;;
789;SDS011;378;48.844;9.156;2022-11-20T05:07:55;6.28;;;3.70;;
789;SDS011;378;48.844;9.156;2022-11-20T05:10:23;5.90;;;3.90;;
789;SDS011;378;48.844;9.156;2022-11-20T05:12:50;6.82;;;3.60;;
789;SDS011;378;48.844;9.156;2022-11-20T05:15:17;4.28;;;3.25;;
789;SDS011;378;48.844;9.156;2022-11-20T05:17:46;6.72;;;3.70;;
789;SDS011;378;48.844;9.156;2022-11-20T05:20:13;5.40;;;3.58;;
789;SDS011;378;48.844;9.156;2022-11-20T05:22:40;6.38;;;3.80;;
789;SDS011;378;48.844;9.156;2022-11-20T05:25:07;7.90;;;3.90;;
789;SDS011;378;48.844;9.156;2022-11-20T05:27:36;6.90;;;4.07;;
789;SDS011;378;48.844;9.156;2022-11-20T05:30:03;7.40;;;3.83;;
789;SDS011;378;48.844;9.156;2022-11-20T05:32:31;5.30;;;3.60;;
789;SDS011;378;48.844;9.156;2022-11-20T05:34:58;5.38;;;3.88;;
789;SDS011;378;48.844;9.156;2022-11-20T05:37:25;6.63;;;3.42;;
789;SDS011;378;48.844;9.156;2022-11-20T05:39:52;5.72;;;3.47;;
789;SDS011;378;48.844;9.156;2022-11-20T05:42:18;5.95;;;3.38;;
789;SDS011;378;48.844;9.156;2022-11-20T05:45:02;6.88;;;3.30;;
789;SDS011;378;48.844;9.156;2022-11-20T05:47:50;5.18;;;3.53;;
789;SDS011;378;48.844;9.156;2022-11-20T05:50:17;3.88;;;2.97;;
789;SDS011;378;48.844;9.156;2022-11-20T05:52:44;9.82;;;3.15;;
789;SDS011;378;48.844;9.156;2022-11-20T05:55:11;6.78;;;3.33;;
789;SDS011;378;48.844;9.156;2022-11-20T05:57:38;5.40;;;2.95;;
789;SDS011;378;48.844;9.156;2022-11-20T06:00:07;5.93;;;2.80;;
789;SDS011;378;48.844;9.156;2022-11-20T06:02:34;5.43;;;3.42;;
789;SDS011;378;48.844;9.156;2022-11-20T06:05:01;7.38;;;3.13;;
789;SDS011;378;48.844;9.156;2022-11-20T06:07:29;6.22;;;2.90;;
789;SDS011;378;48.844;9.156;2022-11-20T06:09:55;5.82;;;3.10;;
789;SDS011;378;48.844;9.156;2022-11-20T06:12:22;3.65;;;2.83;;
789;SDS011;378;48.844;9.156;2022-11-20T06:14:49;5.82;;;3.25;;
789;SDS011;378;48.844;9.156;2022-11-20T06:17:17;7.10;;;3.35;;
789;SDS011;378;48.844;9.156;2022-11-20T06:19:44;6.40;;;3.38;;
789;SDS011;378;48.844;9.156;2022-11-20T06:22:11;6.05;;;3.08;;
789;SDS011;378;48.844;9.156;2022-11-20T06:24:38;8.02;;;3.53;;
789;SDS011;378;48.844;9.156;2022-11-20T06:27:04;4.68;;;3.25;;
789;SDS011;378;48.844;9.156;2022-11-20T06:29:31;5.80;;;3.30;;
789;SDS011;378;48.844;9.156;2022-11-20T06:31:58;5.32;;;3.30;;
789;SDS011;378;48.844;9.156;2022-11-20T06:34:26;9.18;;;3.78;;
789;SDS011;378;48.844;9.156;2022-11-20T06:36:53;5.20;;;3.10;;
789;SDS011;378;48.844;9.156;2022-11-20T06:39:20;4.43;;;2.88;;
789;SDS011;378;48.844;9.156;2022-11-20T06:41:47;3.05;;;2.28;;
789;SDS011;378;48.844;9.156;2022-11-20T06:44:14;5.38;;;2.50;;
789;SDS011;378;48.844;9.156;2022-11-20T06:46:40;3.53;;;2.67;;
789;SDS011;378;48.844;9.156;2022-11-20T06:49:07;3.35;;;2.45;;
789;SDS011;378;48.844;9.156;2022-11-20T06:51:35;6.82;;;2.75;;
789;SDS011;378;48.844;9.156;2022-11-20T06:54:02;4.30;;;2.58;;
789;SDS011;378;48.844;9.156;2022-11-20T06:56:29;3.40;;;2.45;;
789;SDS011;378;48.844;9.156;2022-11-20T06:58:56;4.88;;;2.80;;
789;SDS011;378;48.844;9.156;2022-11-20T07:01:23;3.13;;;2.38;;
789;SDS011;378;48.844;9.156;2022-11-20T07:03:50;6.68;;;2.97;;
789;SDS011;378;48.844;9.156;2022-11-20T07:06:17;3.25;;;2.30;;
789;SDS011;378;48.844;9.156;2022-11-20T07:08:45;4.38;;;2.05;;
789;SDS011;378;48.844;9.156;2022-11-20T07:11:12;2.72;;;1.90;;
789;SDS011;378;48.844;9.156;2022-11-20T07:13:39;3.83;;;2.30;;
789;SDS011;378;48.844;9.156;2022-11-20T07:16:06;3.33;;;1.98;;
789;SDS011;378;48.844;9.156;2022-11-20T07:18:34;2.28;;;2.00;;
789;SDS011;378;48.844;9.156;2022-11-20T07:21:01;3.65;;;1.90;;
789;SDS011;378;48.844;9.156;2022-11-20T07:23:28;3.15;;;2.10;;
789;SDS011;378;48.844;9.156;2022-11-20T07:25:57;4.18;;;1.80;;
789;SDS011;378;48.844;9.156;2022-11-20T07:28:23;6.18;;;1.83;;
789;SDS011;378;48.844;9.156;2022-11-20T07:30:51;2.10;;;1.50;;
789;SDS011;378;48.844;9.156;2022-11-20T07:33:18;2.33;;;1.75;;
789;SDS011;378;48.844;9.156;2022-11-20T07:35:45;4.38;;;2.00;;
789;SDS011;378;48.844;9.156;2022-11-20T07:38:12;2.35;;;1.95;;
789;SDS011;378;48.844;9.156;2022-11-20T07:40:39;2.83;;;1.83;;
789;SDS011;378;48.844;9.156;2022-11-20T07:43:07;2.13;;;1.80;;
789;SDS011;378;48.844;9.156;2022-11-20T07:45:34;2.58;;;1.92;;
789;SDS011;378;48.844;9.156;2022-11-20T07:48:01;4.80;;;2.33;;
789;SDS011;378;48.844;9.156;2022-11-20T07:50:28;4.43;;;1.92;;
789;SDS011;378;48.844;9.156;2022-11-20T07:53:00;2.38;;;1.80;;
789;SDS011;378;48.844;9.156;2022-11-20T07:55:27;4.18;;;1.85;;
789;SDS011;378;48.844;9.156;2022-11-20T07:57:54;2.38;;;1.85;;
789;SDS011;378;48.844;9.156;2022-11-20T08:00:23;4.38;;;2.60;;
789;SDS011;378;48.844;9.156;2022-11-20T08:02:50;7.88;;;2.30;;
789;SDS011;378;48.844;9.156;2022-11-20T08:05:17;4.07;;;2.20;;
789;SDS011;378;48.844;9.156;2022-11-20T08:07:44;3.20;;;2.30;;
789;SDS011;378;48.844;9.156;2022-11-20T08:10:12;4.30;;;2.10;;
789;SDS011;378;48.844;9.156;2022-11-20T08:12:44;5.75;;;2.15;;
789;SDS011;378;48.844;9.156;2022-11-20T08:15:31;3.72;;;2.40;;
789;SDS011;378;48.844;9.156;2022-11-20T08:18:01;3.92;;;2.38;;
789;SDS011;378;48.844;9.156;2022-11-20T08:20:29;4.05;;;2.30;;
789;SDS011;378;48.844;9.156;2022-11-20T08:22:59;4.07;;;2.38;;
789;SDS011;378;48.844;9.156;2022-11-20T08:25:26;6.90;;;2.60;;
789;SDS011;378;48.844;9.156;2022-11-20T08:27:54;2.85;;;2.22;;
789;SDS011;378;48.844;9.156;2022-11-20T08:30:23;2.03;;;1.80;;
789;SDS011;378;48.844;9.156;2022-11-20T08:32:52;2.80;;;1.95;;
789;SDS011;378;48.844;9.156;2022-11-20T08:35:19;2.47;;;1.50;;
789;SDS011;378;48.844;9.156;2022-11-20T08:37:46;1.92;;;1.33;;
789;SDS011;378;48.844;9.156;2022-11-20T08:40:13;1.38;;;1.17;;
789;SDS011;378;48.844;9.156;2022-11-20T08:42:45;2.47;;;1.17;;
789;SDS011;378;48.844;9.156;2022-11-20T08:45:13;1.95;;;1.13;;
789;SDS011;378;48.844;9.156;2022-11-20T08:47:40;2.67;;;1.00;;
789;SDS011;378;48.844;9.156;2022-11-20T08:50:09;1.23;;;1.10;;
789;SDS011;378;48.844;9.156;2022-11-20T08:52:37;3.63;;;1.10;;
789;SDS011;378;48.844;9.156;2022-11-20T08:55:04;1.33;;;1.08;;
789;SDS011;378;48.844;9.156;2022-11-20T08:57:32;1.17;;;1.00;;
789;SDS011;378;48.844;9.156;2022-11-20T08:59:59;1.83;;;1.00;;
789;SDS011;378;48.844;9.156;2022-11-20T09:02:26;2.20;;;1.05;;
789;SDS011;378;48.844;9.156;2022-11-20T09:04:53;1.35;;;0.90;;
789;SDS011;378;48.844;9.156;2022-11-20T09:07:21;0.60;;;0.60;;
789;SDS011;378;48.844;9.156;2022-11-20T09:09:49;2.15;;;0.80;;
789;SDS011;378;48.844;9.156;2022-11-20T09:12:15;1.33;;;0.80;;
789;SDS011;378;48.844;9.156;2022-11-20T09:14:42;1.48;;;0.90;;
789;SDS011;378;48.844;9.156;2022-11-20T09:17:09;1.30;;;1.13;;
789;SDS011;378;48.844;9.156;2022-11-20T09:19:38;1.23;;;1.08;;
789;SDS011;378;48.844;9.156;2022-11-20T09:22:06;0.95;;;0.90;;
789;SDS011;378;48.844;9.156;2022-11-20T09:24:34;1.52;;;1.00;;
789;SDS011;378;48.844;9.156;2022-11-20T09:27:02;0.90;;;0.90;;
789;SDS011;378;48.844;9.156;2022-11-20T09:29:29;0.82;;;0.70;;
789;SDS011;378;48.844;9.156;2022-11-20T09:31:56;1.27;;;0.82;;
789;SDS011;378;48.844;9.156;2022-11-20T09:34:23;0.82;;;0.80;;
789;SDS011;378;48.844;9.156;2022-11-20T09:36:50;0.80;;;0.80;;
789;SDS011;378;48.844;9.156;2022-11-20T09:39:16;1.33;;;0.85;;
789;SDS011;378;48.844;9.156;2022-11-20T09:41:54;2.15;;;1.40;;
789;SDS011;378;48.844;9.156;2022-11-20T09:47:31;1.05;;;0.82;;
789;SDS011;378;48.844;9.156;2022-11-20T09:50:16;1.67;;;1.02;;
789;SDS011;378;48.844;9.156;2022-11-20T09:52:52;2.70;;;1.30;;
789;SDS011;378;48.844;9.156;2022-11-20T09:55:27;1.00;;;0.82;;
789;SDS011;378;48.844;9.156;2022-11-20T09:57:56;1.48;;;0.80;;
789;SDS011;378;48.844;9.156;2022-11-20T10:00:26;1.10;;;0.90;;
789;SDS011;378;48.844;9.156;2022-11-20T10:02:55;2.58;;;0.93;;
789;SDS011;378;48.844;9.156;2022-11-20T10:05:26;1.27;;;0.88;;
789;SDS011;378;48.844;9.156;2022-11-20T10:08:02;1.42;;;1.10;;
789;SDS011;378;48.844;9.156;2022-11-20T10:10:36;1.20;;;1.10;;
789;SDS011;378;48.844;9.156;2022-11-20T10:16:03;1.65;;;1.10;;
789;SDS011;378;48.844;9.156;2022-11-20T10:18:44;1.38;;;0.90;;
789;SDS011;378;48.844;9.156;2022-11-20T10:21:26;1.10;;;1.00;;
789;SDS011;378;48.844;9.156;2022-11-20T10:24:10;0.90;;;0.90;;
789;SDS011;378;48.844;9.156;2022-11-20T10:26:51;4.53;;;1.20;;
789;SDS011;378;48.844;9.156;2022-11-20T10:29:26;1.33;;;1.20;;
789;SDS011;378;48.844;9.156;2022-11-20T10:32:00;1.52;;;1.30;;
789;SDS011;378;48.844;9.156;2022-11-20T10:34:31;2.63;;;1.65;;
789;SDS011;378;48.844;9.156;2022-11-20T10:37:02;1.80;;;1.33;;
789;SDS011;378;48.844;9.156;2022-11-20T10:39:32;1.98;;;1.25;;
789;SDS011;378;48.844;9.156;2022-11-20T10:42:07;2.58;;;1.15;;
789;SDS011;378;48.844;9.156;2022-11-20T10:44:38;4.18;;;1.35;;
789;SDS011;378;48.844;9.156;2022-11-20T10:47:27;1.83;;;1.10;;
789;SDS011;378;48.844;9.156;2022-11-20T10:49:57;2.05;;;0.90;;
789;SDS011;378;48.844;9.156;2022-11-20T10:52:31;1.40;;;1.00;;
789;SDS011;378;48.844;9.156;2022-11-20T10:55:11;2.53;;;1.00;;
789;SDS011;378;48.844;9.156;2022-11-20T10:57:52;2.35;;;1.20;;
789;SDS011;378;48.844;9.156;2022-11-20T11:00:30;3.75;;;1.10;;
789;SDS011;378;48.844;9.156;2022-11-20T11:02:57;3.20;;;1.50;;
789;SDS011;378;48.844;9.156;2022-11-20T11:05:32;3.42;;;1.80;;
789;SDS011;378;48.844;9.156;2022-11-20T11:08:04;2.45;;;1.40;;
789;SDS011;378;48.844;9.156;2022-11-20T11:10:37;2.45;;;1.85;;
789;SDS011;378;48.844;9.156;2022-11-20T11:13:18;1.63;;;1.52;;
789;SDS011;378;48.844;9.156;2022-11-20T11:15:47;2.33;;;1.70;;
789;SDS011;378;48.844;9.156;2022-11-20T11:18:22;3.38;;;1.80;;
789;SDS011;378;48.844;9.156;2022-11-20T11:20:51;3.80;;;1.83;;
789;SDS011;378;48.844;9.156;2022-11-20T11:23:26;2.75;;;2.13;;
789;SDS011;378;48.844;9.156;2022-11-20T11:25:58;2.92;;;1.75;;
789;SDS011;378;48.844;9.156;2022-11-20T11:28:26;2.63;;;2.00;;
789;SDS011;378;48.844;9.156;2022-11-20T11:30:55;3.70;;;2.05;;
789;SDS011;378;48.844;9.156;2022-11-20T11:33:23;2.80;;;2.10;;
789;SDS011;378;48.844;9.156;2022-11-20T11:35:52;3.65;;;2.10;;
789;SDS011;378;48.844;9.156;2022-11-20T11:38:23;3.20;;;2.13;;
789;SDS011;378;48.844;9.156;2022-11-20T11:40:55;2.70;;;2.15;;
789;SDS011;378;48.844;9.156;2022-11-20T11:43:23;3.83;;;2.40;;
789;SDS011;378;48.844;9.156;2022-11-20T11:46:20;4.50;;;2.60;;
789;SDS011;378;48.844;9.156;2022-11-20T11:48:55;5.65;;;2.22;;
789;SDS011;378;48.844;9.156;2022-11-20T11:51:23;4.43;;;1.85;;
789;SDS011;378;48.844;9.156;2022-11-20T11:53:54;7.15;;;2.40;;
789;SDS011;378;48.844;9.156;2022-11-20T11:56:23;5.47;;;2.35;;
789;SDS011;378;48.844;9.156;2022-11-20T11:58:51;4.10;;;1.40;;
789;SDS011;378;48.844;9.156;2022-11-20T12:01:26;3.80;;;1.42;;
789;SDS011;378;48.844;9.156;2022-11-20T12:04:00;4.25;;;1.30;;
789;SDS011;378;48.844;9.156;2022-11-20T12:06:30;4.90;;;1.50;;
789;SDS011;378;48.844;9.156;2022-11-20T12:08:59;7.95;;;1.50;;
789;SDS011;378;48.844;9.156;2022-11-20T12:11:31;5.68;;;1.40;;
789;SDS011;378;48.844;9.156;2022-11-20T12:14:04;5.78;;;1.30;;
789;SDS011;378;48.844;9.156;2022-11-20T12:16:40;5.00;;;1.35;;
789;SDS011;378;48.844;9.156;2022-11-20T12:19:08;4.93;;;1.60;;
789;SDS011;378;48.844;9.156;2022-11-20T12:21:40;2.00;;;1.20;;
789;SDS011;378;48.844;9.156;2022-11-20T12:24:24;3.35;;;1.42;;
789;SDS011;378;48.844;9.156;2022-11-20T12:27:14;2.92;;;1.20;;
789;SDS011;378;48.844;9.156;2022-11-20T12:30:07;3.20;;;1.15;;
789;SDS011;378;48.844;9.156;2022-11-20T12:32:41;2.17;;;1.27;;
789;SDS011;378;48.844;9.156;2022-11-20T12:35:27;4.85;;;1.40;;
789;SDS011;378;48.844;9.156;2022-11-20T12:38:06;1.88;;;0.90;;
789;SDS011;378;48.844;9.156;2022-11-20T12:40:50;6.78;;;1.10;;
789;SDS011;378;48.844;9.156;2022-11-20T12:43:24;3.72;;;1.70;;
789;SDS011;378;48.844;9.156;2022-11-20T12:46:16;4.55;;;1.08;;
789;SDS011;378;48.844;9.156;2022-11-20T12:48:52;3.05;;;1.17;;
789;SDS011;378;48.844;9.156;2022-11-20T12:51:39;4.50;;;1.23;;
789;SDS011;378;48.844;9.156;2022-11-20T12:54:28;0.85;;;0.80;;
789;SDS011;378;48.844;9.156;2022-11-20T12:57:16;1.08;;;0.82;;
789;SDS011;378;48.844;9.156;2022-11-20T12:59:55;1.52;;;1.08;;
789;SDS011;378;48.844;9.156;2022-11-20T13:02:37;2.85;;;1.10;;
789;SDS011;378;48.844;9.156;2022-11-20T13:05:27;6.05;;;1.35;;
789;SDS011;378;48.844;9.156;2022-11-20T13:08:00;2.47;;;1.00;;
789;SDS011;378;48.844;9.156;2022-11-20T13:10:31;2.97;;;1.30;;
789;SDS011;378;48.844;9.156;2022-11-20T13:13:04;4.43;;;1.30;;
789;SDS011;378;48.844;9.156;2022-11-20T13:15:42;2.88;;;0.98;;
789;SDS011;378;48.844;9.156;2022-11-20T13:18:16;6.05;;;1.33;;
789;SDS011;378;48.844;9.156;2022-11-20T13:20:45;3.20;;;1.20;;
789;SDS011;378;48.844;9.156;2022-11-20T13:23:22;2.53;;;1.10;;
789;SDS011;378;48.844;9.156;2022-11-20T13:25:50;2.67;;;0.77;;
789;SDS011;378;48.844;9.156;2022-11-20T13:28:29;3.17;;;1.00;;
789;SDS011;378;48.844;9.156;2022-11-20T13:30:57;4.30;;;1.95;;
789;SDS011;378;48.844;9.156;2022-11-20T13:33:26;2.05;;;1.05;;
789;SDS011;378;48.844;9.156;2022-11-20T13:35:58;2.90;;;0.98;;
789;SDS011;378;48.844;9.156;2022-11-20T13:38:26;2.58;;;1.00;;
789;SDS011;378;48.844;9.156;2022-11-20T13:40:54;2.53;;;1.30;;
789;SDS011;378;48.844;9.156;2022-11-20T13:43:26;2.10;;;1.00;;
789;SDS011;378;48.844;9.156;2022-11-20T13:45:59;3.10;;;1.55;;
789;SDS011;378;48.844;9.156;2022-11-20T13:48:29;4.75;;;1.83;;
789;SDS011;378;48.844;9.156;2022-11-20T13:51:02;2.85;;;1.83;;
789;SDS011;378;48.844;9.156;2022-11-20T13:54:01;4.93;;;1.60;;
789;SDS011;378;48.844;9.156;2022-11-20T13:56:41;5.68;;;2.17;;
789;SDS011;378;48.844;9.156;2022-11-20T13:59:23;3.10;;;2.13;;
789;SDS011;378;48.844;9.156;2022-11-20T14:02:02;2.75;;;1.33;;
789;SDS011;378;48.844;9.156;2022-11-20T14:04:30;3.38;;;1.50;;
789;SDS011;378;48.844;9.156;2022-11-20T14:07:03;5.18;;;2.00;;
789;SDS011;378;48.844;9.156;2022-11-20T14:09:32;4.35;;;1.38;;
789;SDS011;378;48.844;9.156;2022-11-20T14:12:00;0.95;;;0.85;;
789;SDS011;378;48.844;9.156;2022-11-20T14:14:29;3.92;;;1.00;;
789;SDS011;378;48.844;9.156;2022-11-20T14:17:04;2.20;;;1.00;;
789;SDS011;378;48.844;9.156;2022-11-20T14:19:32;1.70;;;1.00;;
789;SDS011;378;48.844;9.156;2022-11-20T14:22:14;5.88;;;1.00;;
789;SDS011;378;48.844;9.156;2022-11-20T14:24:44;1.85;;;0.90;;
789;SDS011;378;48.844;9.156;2022-11-20T14:27:14;2.75;;;1.20;;
789;SDS011;378;48.844;9.156;2022-11-20T14:29:42;2.42;;;1.20;;
789;SDS011;378;48.844;9.156;2022-11-20T14:32:11;2.00;;;1.30;;
789;SDS011;378;48.844;9.156;2022-11-20T14:34:43;1.05;;;0.95;;
789;SDS011;378;48.844;9.156;2022-11-20T14:37:16;2.60;;;1.00;;
789;SDS011;378;48.844;9.156;2022-11-20T14:39:48;1.98;;;1.00;;
789;SDS011;378;48.844;9.156;2022-11-20T14:42:17;3.13;;;1.50;;
789;SDS011;378;48.844;9.156;2022-11-20T14:44:45;1.17;;;0.90;;
789;SDS011;378;48.844;9.156;2022-11-20T14:47:15;3.35;;;1.27;;
789;SDS011;378;48.844;9.156;2022-11-20T14:49:45;2.92;;;1.38;;
789;SDS011;378;48.844;9.156;2022-11-20T14:52:15;2.70;;;1.67;;
789;SDS011;378;48.844;9.156;2022-11-20T14:54:43;2.13;;;1.35;;
789;SDS011;378;48.844;9.156;2022-11-20T14:57:19;2.50;;;1.30;;
789;SDS011;378;48.844;9.156;2022-11-20T14:59:48;3.88;;;1.40;;
789;SDS011;378;48.844;9.156;2022-11-20T15:02:15;5.03;;;1.67;;
789;SDS011;378;48.844;9.156;2022-11-20T15:04:46;2.65;;;1.05;;
789;SDS011;378;48.844;9.156;2022-11-20T15:07:24;2.25;;;1.23;;
789;SDS011;378;48.844;9.156;2022-11-20T15:10:00;2.92;;;1.30;;
789;SDS011;378;48.844;9.156;2022-11-20T15:12:27;1.27;;;0.98;;
789;SDS011;378;48.844;9.156;2022-11-20T15:14:55;2.45;;;0.88;;
789;SDS011;378;48.844;9.156;2022-11-20T15:17:23;4.10;;;1.30;;
789;SDS011;378;48.844;9.156;2022-11-20T15:19:50;5.20;;;1.30;;
789;SDS011;378;48.844;9.156;2022-11-20T15:22:17;2.25;;;1.10;;
789;SDS011;378;48.844;9.156;2022-11-20T15:24:45;2.97;;;0.98;;
789;SDS011;378;48.844;9.156;2022-11-20T15:27:12;1.23;;;0.93;;
789;SDS011;378;48.844;9.156;2022-11-20T15:29:39;2.88;;;1.40;;
789;SDS011;378;48.844;9.156;2022-11-20T15:32:07;2.47;;;1.17;;
789;SDS011;378;48.844;9.156;2022-11-20T15:34:34;1.30;;;0.95;;
789;SDS011;378;48.844;9.156;2022-11-20T15:37:01;1.63;;;1.10;;
789;SDS011;378;48.844;9.156;2022-11-20T15:39:28;2.03;;;1.00;;
789;SDS011;378;48.844;9.156;2022-11-20T15:41:56;2.63;;;1.10;;
789;SDS011;378;48.844;9.156;2022-11-20T15:44:23;4.82;;;1.65;;
789;SDS011;378;48.844;9.156;2022-11-20T15:46:49;2.45;;;1.63;;
789;SDS011;378;48.844;9.156;2022-11-20T15:49:16;2.50;;;1.20;;
789;SDS011;378;48.844;9.156;2022-11-20T15:51:47;2.72;;;1.25;;
789;SDS011;378;48.844;9.156;2022-11-20T15:54:18;6.93;;;1.27;;
789;SDS011;378;48.844;9.156;2022-11-20T15:56:46;3.03;;;1.20;;
789;SDS011;378;48.844;9.156;2022-11-20T15:59:15;3.75;;;1.40;;
789;SDS011;378;48.844;9.156;2022-11-20T16:01:42;3.10;;;1.75;;
789;SDS011;378;48.844;9.156;2022-11-20T16:04:09;5.53;;;2.30;;